createdAt,value
2022-12-28T00:00:14.935Z,1.67
2022-12-28T00:02:43.691Z,1.66
2022-12-28T00:05:13.757Z,1.66
2022-12-28T00:07:42.756Z,1.70
2022-12-28T00:10:11.539Z,1.70
2022-12-28T00:12:40.456Z,1.68
2022-12-28T00:15:09.615Z,1.65
2022-12-28T00:17:38.267Z,1.64
2022-12-28T00:20:08.071Z,1.63
2022-12-28T00:22:38.721Z,1.64
2022-12-28T00:25:08.663Z,1.63
2022-12-28T00:27:37.342Z,1.62
2022-12-28T00:30:06.881Z,1.58
2022-12-28T00:32:36.162Z,1.57
2022-12-28T00:35:05.836Z,1.54
2022-12-28T00:37:35.691Z,1.51
2022-12-28T00:40:09.545Z,1.47
2022-12-28T00:42:38.153Z,1.44
2022-12-28T00:45:07.924Z,1.48
2022-12-28T00:47:36.572Z,1.56
2022-12-28T00:50:06.147Z,1.54
2022-12-28T00:52:34.841Z,1.57
2022-12-28T00:55:03.504Z,1.59
2022-12-28T00:57:34.010Z,1.57
2022-12-28T01:00:02.638Z,1.61
2022-12-28T01:02:31.263Z,1.64
2022-12-28T01:05:00.305Z,1.64
2022-12-28T01:07:29.196Z,1.59
2022-12-28T01:09:57.837Z,1.60
2022-12-28T01:12:26.489Z,1.62
2022-12-28T01:14:56.543Z,1.62
2022-12-28T01:17:26.582Z,1.62
2022-12-28T01:19:55.253Z,1.62
2022-12-28T01:22:23.927Z,1.63
2022-12-28T01:24:52.633Z,1.68
2022-12-28T01:27:21.987Z,1.66
2022-12-28T01:29:50.611Z,1.66
2022-12-28T01:32:20.911Z,1.68
2022-12-28T01:34:49.587Z,1.70
2022-12-28T01:37:18.193Z,1.67
2022-12-28T01:39:46.843Z,1.66
2022-12-28T01:42:17.534Z,1.63
2022-12-28T01:44:48.257Z,1.59
2022-12-28T01:47:20.610Z,1.63
2022-12-28T01:49:52.747Z,1.66
2022-12-28T01:52:23.471Z,1.64
2022-12-28T01:54:53.653Z,1.66
2022-12-28T01:57:23.773Z,1.68
2022-12-28T01:59:54.557Z,1.71
2022-12-28T02:02:24.807Z,1.71
2022-12-28T02:04:54.547Z,1.72
2022-12-28T02:07:28.272Z,1.71
2022-12-28T02:10:42.592Z,1.68
2022-12-28T02:12:48.701Z,1.74
2022-12-28T02:15:22.847Z,1.76
2022-12-28T02:17:53.776Z,1.76
2022-12-28T02:20:22.500Z,1.73
2022-12-28T02:23:25.884Z,1.79
2022-12-28T02:26:25.767Z,1.78
2022-12-28T02:29:40.057Z,1.78
2022-12-28T02:32:17.126Z,1.84
2022-12-28T02:34:49.196Z,1.85
2022-12-28T02:37:18.958Z,1.89
2022-12-28T02:39:49.571Z,1.89
2022-12-28T02:42:18.737Z,1.89
2022-12-28T02:45:02.565Z,1.92
2022-12-28T02:47:48.618Z,1.95
2022-12-28T02:50:17.295Z,1.97
2022-12-28T02:53:01.086Z,1.98
2022-12-28T02:56:00.567Z,1.97
2022-12-28T02:58:37.677Z,1.93
2022-12-28T03:01:14.446Z,1.93
2022-12-28T03:03:46.325Z,1.93
2022-12-28T03:06:35.085Z,1.92
2022-12-28T03:09:09.508Z,1.98
2022-12-28T03:11:40.857Z,1.98
2022-12-28T03:14:10.710Z,1.96
2022-12-28T03:16:55.375Z,2.00
2022-12-28T03:19:47.162Z,2.00
2022-12-28T03:22:33.328Z,1.98
2022-12-28T03:25:22.120Z,1.96
2022-12-28T03:28:09.781Z,1.93
2022-12-28T03:30:56.243Z,1.94
2022-12-28T03:33:26.888Z,1.96
2022-12-28T03:35:59.277Z,1.99
2022-12-28T03:38:30.667Z,1.99
2022-12-28T03:41:03.923Z,1.99
2022-12-28T03:43:41.496Z,1.91
2022-12-28T03:46:16.805Z,1.89
2022-12-28T03:48:47.877Z,1.89
2022-12-28T03:51:18.442Z,1.86
2022-12-28T03:53:47.808Z,1.88
2022-12-28T03:56:21.067Z,1.93
2022-12-28T03:58:50.724Z,1.96
2022-12-28T04:01:21.802Z,1.94
2022-12-28T04:03:52.649Z,1.92
2022-12-28T04:06:21.932Z,1.97
2022-12-28T04:08:51.196Z,1.96
2022-12-28T04:11:19.940Z,1.95
2022-12-28T04:13:54.531Z,1.94
2022-12-28T04:16:23.953Z,1.94
2022-12-28T04:18:54.628Z,1.95
2022-12-28T04:21:23.693Z,1.91
2022-12-28T04:23:52.322Z,1.92
2022-12-28T04:26:24.736Z,1.93
2022-12-28T04:28:58.160Z,1.97
2022-12-28T04:31:33.130Z,1.99
2022-12-28T04:34:12.782Z,2.02
2022-12-28T04:36:48.090Z,2.07
2022-12-28T04:39:20.504Z,2.10
2022-12-28T04:41:49.207Z,2.12
2022-12-28T04:44:17.888Z,2.13
2022-12-28T04:46:46.932Z,2.13
2022-12-28T04:49:17.054Z,2.17
2022-12-28T04:51:45.662Z,2.18
2022-12-28T04:54:14.647Z,2.22
2022-12-28T04:56:43.503Z,2.26
2022-12-28T04:59:12.170Z,2.29
2022-12-28T05:01:40.968Z,2.32
2022-12-28T05:04:09.765Z,2.36
2022-12-28T05:06:39.837Z,2.40
2022-12-28T05:09:08.754Z,2.42
2022-12-28T05:11:37.402Z,2.41
2022-12-28T05:14:06.316Z,2.45
2022-12-28T05:16:35.032Z,2.51
2022-12-28T05:19:03.967Z,2.54
2022-12-28T05:21:32.640Z,2.55
2022-12-28T05:24:04.032Z,2.56
2022-12-28T05:26:36.034Z,2.56
2022-12-28T05:29:04.683Z,2.59
2022-12-28T05:31:33.446Z,2.56
2022-12-28T05:34:02.491Z,2.55
2022-12-28T05:36:32.778Z,2.61
2022-12-28T05:39:01.796Z,2.64
2022-12-28T05:41:32.220Z,2.68
2022-12-28T05:44:01.214Z,2.72
2022-12-28T05:46:30.977Z,2.71
2022-12-28T05:48:59.747Z,2.70
2022-12-28T05:51:29.504Z,2.69
2022-12-28T05:53:59.422Z,2.69
2022-12-28T05:56:28.748Z,2.69
2022-12-28T05:58:59.569Z,2.68
2022-12-28T06:01:29.244Z,2.68
2022-12-28T06:03:59.110Z,2.67
2022-12-28T06:06:27.906Z,2.67
2022-12-28T06:08:56.663Z,2.64
2022-12-28T06:11:25.990Z,2.65
2022-12-28T06:13:54.754Z,2.65
2022-12-28T06:16:25.843Z,2.67
2022-12-28T06:18:54.919Z,2.69
2022-12-28T06:21:24.442Z,2.73
2022-12-28T06:23:53.177Z,2.78
2022-12-28T06:26:22.627Z,2.75
2022-12-28T06:28:51.391Z,2.72
2022-12-28T06:31:21.018Z,2.70
2022-12-28T06:33:54.008Z,2.69
2022-12-28T06:36:23.843Z,2.69
2022-12-28T06:38:52.820Z,2.70
2022-12-28T06:41:21.920Z,2.70
2022-12-28T06:43:50.897Z,2.73
2022-12-28T06:46:21.450Z,2.76
2022-12-28T06:48:51.985Z,2.79
2022-12-28T06:51:21.325Z,2.83
2022-12-28T06:53:50.352Z,2.86
2022-12-28T06:56:19.923Z,2.85
2022-12-28T06:58:49.375Z,2.85
2022-12-28T07:01:19.613Z,2.86
2022-12-28T07:03:48.813Z,2.85
2022-12-28T07:06:20.260Z,2.86
2022-12-28T07:08:49.694Z,2.91
2022-12-28T07:11:19.500Z,2.90
2022-12-28T07:13:48.511Z,2.94
2022-12-28T07:16:17.796Z,2.96
2022-12-28T07:18:46.502Z,2.96
2022-12-28T07:21:16.027Z,3.04
2022-12-28T07:23:46.130Z,3.04
2022-12-28T07:26:15.909Z,3.06
2022-12-28T07:28:45.766Z,3.05
2022-12-28T07:31:15.115Z,3.07
2022-12-28T07:33:44.224Z,3.09
2022-12-28T07:36:14.305Z,3.08
2022-12-28T07:38:43.447Z,3.01
2022-12-28T07:41:14.397Z,3.02
2022-12-28T07:43:43.405Z,3.02
2022-12-28T07:46:13.436Z,3.02
2022-12-28T07:48:42.242Z,3.07
2022-12-28T07:51:11.994Z,3.09
2022-12-28T07:53:41.386Z,3.12
2022-12-28T07:56:10.161Z,3.15
2022-12-28T08:01:08.875Z,3.13
2022-12-28T08:03:37.766Z,3.16
2022-12-28T08:06:07.832Z,3.17
2022-12-28T08:08:37.306Z,3.24
2022-12-28T08:11:07.142Z,3.33
2022-12-28T08:13:36.585Z,3.41
2022-12-28T08:16:08.367Z,3.51
2022-12-28T08:21:47.619Z,3.68
2022-12-28T08:24:17.039Z,3.76
2022-12-28T08:26:45.964Z,3.89
2022-12-28T08:29:16.278Z,3.97
2022-12-28T08:31:46.858Z,4.05
2022-12-28T08:34:16.748Z,4.19
2022-12-28T08:36:45.485Z,4.27
2022-12-28T08:39:14.816Z,4.38
2022-12-28T08:41:43.805Z,4.46
2022-12-28T08:44:12.619Z,4.53
2022-12-28T08:46:42.061Z,4.54
2022-12-28T08:49:15.929Z,4.56
2022-12-28T08:51:44.776Z,4.55
2022-12-28T08:54:14.962Z,4.56
2022-12-28T08:56:44.586Z,4.56
2022-12-28T08:59:15.064Z,4.56
2022-12-28T09:01:44.864Z,4.56
2022-12-28T09:04:16.258Z,4.54
2022-12-28T09:06:45.115Z,4.55
2022-12-28T09:09:14.517Z,4.54
2022-12-28T09:11:43.688Z,4.53
2022-12-28T09:14:22.149Z,4.54
2022-12-28T09:16:52.384Z,4.56
2022-12-28T09:19:22.861Z,4.61
2022-12-28T09:21:53.423Z,4.66
2022-12-28T09:24:23.436Z,4.72
2022-12-28T09:26:54.874Z,4.76
2022-12-28T09:29:24.142Z,4.76
2022-12-28T09:31:52.864Z,4.78
2022-12-28T09:34:38.611Z,4.81
2022-12-28T09:37:08.002Z,4.88
2022-12-28T09:39:37.300Z,4.95
2022-12-28T09:42:07.998Z,4.97
2022-12-28T09:44:49.193Z,5.05
2022-12-28T09:47:24.802Z,5.14
2022-12-28T09:50:24.198Z,5.17
2022-12-28T09:52:58.100Z,5.22
2022-12-28T09:55:27.054Z,5.27
2022-12-28T09:57:57.473Z,5.32
2022-12-28T10:00:27.353Z,5.33
2022-12-28T10:02:58.737Z,5.37
2022-12-28T10:05:29.686Z,5.43
2022-12-28T10:07:59.597Z,5.45
2022-12-28T10:10:28.508Z,5.52
2022-12-28T10:12:57.305Z,5.55
2022-12-28T10:15:27.103Z,5.59
2022-12-28T10:17:56.205Z,5.59
2022-12-28T10:20:24.936Z,5.57
2022-12-28T10:22:56.929Z,5.56
2022-12-28T10:25:33.605Z,5.57
2022-12-28T10:28:10.139Z,5.57
2022-12-28T10:30:46.873Z,5.57
2022-12-28T10:33:19.542Z,5.55
2022-12-28T10:35:54.299Z,5.56
2022-12-28T10:38:25.358Z,5.56
2022-12-28T10:40:58.495Z,5.58
2022-12-28T10:43:35.943Z,5.58
2022-12-28T10:46:08.896Z,5.60
2022-12-28T10:48:39.745Z,5.59
2022-12-28T10:51:13.397Z,5.59
2022-12-28T10:53:47.680Z,5.59
2022-12-28T10:56:25.142Z,5.59
2022-12-28T10:58:55.118Z,5.56
2022-12-28T11:01:28.206Z,5.57
2022-12-28T11:04:03.266Z,5.56
2022-12-28T11:06:32.631Z,5.58
2022-12-28T11:09:05.546Z,5.61
2022-12-28T11:11:34.670Z,5.66
2022-12-28T11:14:06.288Z,5.69
2022-12-28T11:16:38.161Z,5.74
2022-12-28T11:19:07.320Z,5.78
2022-12-28T11:21:38.926Z,5.81
2022-12-28T11:24:12.528Z,5.83
2022-12-28T11:26:42.845Z,5.89
2022-12-28T11:29:12.655Z,5.92
2022-12-28T11:31:44.823Z,5.95
2022-12-28T11:34:18.691Z,6.00
2022-12-28T11:36:47.630Z,6.04
2022-12-28T11:39:34.997Z,6.06
2022-12-28T11:42:38.076Z,6.06
2022-12-28T11:44:54.010Z,6.05
2022-12-28T11:47:33.329Z,6.06
2022-12-28T11:50:50.630Z,6.05
2022-12-28T11:53:55.243Z,6.02
2022-12-28T11:56:26.056Z,5.99
2022-12-28T11:59:22.487Z,5.97
2022-12-28T12:01:53.377Z,5.95
2022-12-28T12:04:43.503Z,5.92
2022-12-28T12:07:46.383Z,5.95
2022-12-28T12:10:36.567Z,5.97
2022-12-28T12:13:42.795Z,5.99
2022-12-28T12:16:20.560Z,6.00
2022-12-28T12:18:51.102Z,5.99
2022-12-28T12:21:27.010Z,6.00
2022-12-28T12:24:04.912Z,5.99
2022-12-28T12:26:38.234Z,5.97
2022-12-28T12:29:09.500Z,5.93
2022-12-28T12:31:41.333Z,5.89
2022-12-28T12:34:19.190Z,5.89
2022-12-28T12:37:31.114Z,5.90
2022-12-28T12:40:20.135Z,5.92
2022-12-28T12:42:57.502Z,5.92
2022-12-28T12:45:31.922Z,5.96
2022-12-28T12:48:37.202Z,5.95
2022-12-28T12:51:21.459Z,6.01
2022-12-28T12:53:57.691Z,6.05
2022-12-28T12:56:33.646Z,6.08
2022-12-28T12:59:23.749Z,6.15
2022-12-28T13:01:56.095Z,6.20
2022-12-28T13:04:26.706Z,6.24
2022-12-28T13:06:59.320Z,6.26
2022-12-28T13:09:28.945Z,6.22
2022-12-28T13:11:57.860Z,6.17
2022-12-28T13:14:26.911Z,6.17
2022-12-28T13:16:57.705Z,6.15
2022-12-28T13:19:27.723Z,6.14
2022-12-28T13:21:56.895Z,6.13
2022-12-28T13:24:27.508Z,6.13
2022-12-28T13:26:58.594Z,6.12
2022-12-28T13:29:28.334Z,6.12
2022-12-28T13:31:58.826Z,6.15
2022-12-28T13:34:29.695Z,6.18
2022-12-28T13:36:59.068Z,6.21
2022-12-28T13:39:28.204Z,6.22
2022-12-28T13:41:57.986Z,6.22
2022-12-28T13:44:42.867Z,6.19
2022-12-28T13:47:17.346Z,6.15
2022-12-28T13:49:48.308Z,6.18
2022-12-28T13:52:18.936Z,6.16
2022-12-28T13:54:52.362Z,6.16
2022-12-28T13:57:45.935Z,6.13
2022-12-28T14:00:11.572Z,6.10
2022-12-28T14:02:42.576Z,6.11
2022-12-28T14:05:18.539Z,6.11
2022-12-28T14:07:47.364Z,6.10
2022-12-28T14:10:16.638Z,6.10
2022-12-28T14:12:46.317Z,6.08
2022-12-28T14:15:15.119Z,6.14
2022-12-28T14:17:45.736Z,6.20
2022-12-28T14:20:14.976Z,6.21
2022-12-28T14:22:43.811Z,6.20
2022-12-28T14:25:13.591Z,6.20
2022-12-28T14:27:43.321Z,6.20
2022-12-28T14:30:23.418Z,6.22
2022-12-28T14:32:56.725Z,6.21
2022-12-28T14:35:27.151Z,6.18
2022-12-28T14:37:57.251Z,6.19
2022-12-28T14:40:28.963Z,6.18
2022-12-28T14:42:57.887Z,6.17
2022-12-28T14:46:05.171Z,6.24
2022-12-28T14:48:37.953Z,6.25
2022-12-28T14:51:07.833Z,6.24
2022-12-28T14:53:36.962Z,6.23
2022-12-28T14:56:07.528Z,6.24
2022-12-28T14:58:40.778Z,6.25
2022-12-28T15:01:10.895Z,6.25
2022-12-28T15:03:54.656Z,6.24
2022-12-28T15:06:23.950Z,6.20
2022-12-28T15:08:53.169Z,6.22
2022-12-28T15:11:22.699Z,6.23
2022-12-28T15:13:51.763Z,6.18
2022-12-28T15:16:23.612Z,6.17
2022-12-28T15:18:54.430Z,6.18
2022-12-28T15:21:24.797Z,6.20
2022-12-28T15:24:00.555Z,6.21
2022-12-28T15:26:29.733Z,6.19
2022-12-28T15:28:59.437Z,6.21
2022-12-28T15:31:28.621Z,6.25
2022-12-28T15:33:58.957Z,6.27
2022-12-28T15:36:28.237Z,6.27
2022-12-28T15:38:58.080Z,6.27
2022-12-28T15:41:45.386Z,6.24
2022-12-28T15:44:18.576Z,6.24
2022-12-28T15:46:54.255Z,6.25
2022-12-28T15:49:25.888Z,6.20
2022-12-28T15:51:54.831Z,6.23
2022-12-28T15:54:26.341Z,6.26
2022-12-28T15:56:55.865Z,6.27
2022-12-28T15:59:26.900Z,6.28
2022-12-28T16:01:56.234Z,6.31
2022-12-28T16:04:29.354Z,6.23
2022-12-28T16:06:58.320Z,6.23
2022-12-28T16:09:27.132Z,6.22
2022-12-28T16:11:59.423Z,6.20
2022-12-28T16:14:28.806Z,6.15
2022-12-28T16:16:59.293Z,6.16
2022-12-28T16:19:30.179Z,6.14
2022-12-28T16:21:59.410Z,6.13
2022-12-28T16:24:29.192Z,6.13
2022-12-28T16:27:00.799Z,6.14
2022-12-28T16:29:30.759Z,6.10
2022-12-28T16:32:00.869Z,6.08
2022-12-28T16:34:32.400Z,6.04
2022-12-28T16:37:01.075Z,6.04
2022-12-28T16:39:32.194Z,6.11
2022-12-28T16:42:01.069Z,6.18
2022-12-28T16:44:30.190Z,6.17
2022-12-28T16:46:59.905Z,6.18
2022-12-28T16:49:29.768Z,6.21
2022-12-28T16:52:00.401Z,6.20
2022-12-28T16:54:29.462Z,6.19
2022-12-28T16:56:58.224Z,6.22
2022-12-28T16:59:28.103Z,6.22
2022-12-28T17:01:57.887Z,6.22
2022-12-28T17:04:27.257Z,6.21
2022-12-28T17:06:55.938Z,6.18
2022-12-28T17:09:26.395Z,6.23
2022-12-28T17:11:55.315Z,6.24
2022-12-28T17:14:37.058Z,6.22
2022-12-28T17:17:07.414Z,6.19
2022-12-28T17:19:36.938Z,6.19
2022-12-28T17:22:05.834Z,6.18
2022-12-28T17:24:36.159Z,6.20
2022-12-28T17:27:07.863Z,6.20
2022-12-28T17:29:39.270Z,6.14
2022-12-28T17:32:08.236Z,6.08
2022-12-28T17:34:37.593Z,6.06
2022-12-28T17:37:06.715Z,6.07
2022-12-28T17:39:40.556Z,6.07
2022-12-28T17:42:10.766Z,6.09
2022-12-28T17:44:39.954Z,6.14
2022-12-28T17:47:08.807Z,6.17
2022-12-28T17:49:37.676Z,6.18
2022-12-28T17:52:09.340Z,6.17
2022-12-28T17:54:42.272Z,6.17
2022-12-28T17:57:11.239Z,6.12
2022-12-28T17:59:40.696Z,6.15
2022-12-28T18:02:12.922Z,6.11
2022-12-28T18:04:41.919Z,6.07
2022-12-28T18:07:10.713Z,6.06
2022-12-28T18:09:41.058Z,6.07
2022-12-28T18:12:09.843Z,6.10
2022-12-28T18:14:39.694Z,6.13
2022-12-28T18:17:08.739Z,6.08
2022-12-28T18:19:38.800Z,6.05
2022-12-28T18:22:08.028Z,6.02
2022-12-28T18:24:37.019Z,6.08
2022-12-28T18:27:07.386Z,6.08
2022-12-28T18:29:36.315Z,6.00
2022-12-28T18:32:05.658Z,6.01
2022-12-28T18:34:34.543Z,6.01
2022-12-28T18:37:03.387Z,5.99
2022-12-28T18:39:32.210Z,5.99
2022-12-28T18:42:02.459Z,6.02
2022-12-28T18:44:34.011Z,6.09
2022-12-28T18:47:03.015Z,6.09
2022-12-28T18:49:31.900Z,6.08
2022-12-28T18:52:01.494Z,6.10
2022-12-28T18:54:30.608Z,6.10
2022-12-28T18:56:59.332Z,6.11
2022-12-28T18:59:28.132Z,6.12
2022-12-28T19:02:08.283Z,6.07
2022-12-28T19:04:38.936Z,6.03
2022-12-28T19:07:08.067Z,6.02
2022-12-28T19:10:01.249Z,6.04
2022-12-28T19:12:32.961Z,6.02
2022-12-28T19:15:01.806Z,6.00
2022-12-28T19:17:32.134Z,5.99
2022-12-28T19:20:01.300Z,6.00
2022-12-28T19:22:31.957Z,5.98
2022-12-28T19:25:01.008Z,5.99
2022-12-28T19:27:32.496Z,5.97
2022-12-28T19:30:01.211Z,5.95
2022-12-28T19:32:31.915Z,5.94
2022-12-28T19:35:00.977Z,5.95
2022-12-28T19:37:29.905Z,6.02
2022-12-28T19:39:58.833Z,6.00
2022-12-28T19:42:27.758Z,6.02
2022-12-28T19:44:56.921Z,6.05
2022-12-28T19:47:25.814Z,6.07
2022-12-28T19:49:56.613Z,6.11
2022-12-28T19:52:27.939Z,6.12
2022-12-28T19:55:02.852Z,6.10
2022-12-28T19:57:36.780Z,6.12
2022-12-28T20:00:10.317Z,6.10
2022-12-28T20:02:39.408Z,6.07
2022-12-28T20:05:11.099Z,6.04
2022-12-28T20:07:40.026Z,6.02
2022-12-28T20:10:09.295Z,5.97
2022-12-28T20:12:38.026Z,5.98
2022-12-28T20:15:07.990Z,5.96
2022-12-28T20:17:37.050Z,5.94
2022-12-28T20:20:06.558Z,5.92
2022-12-28T20:22:36.963Z,5.94
2022-12-28T20:25:06.430Z,5.94
2022-12-28T20:27:35.224Z,5.92
2022-12-28T20:30:05.096Z,5.89
2022-12-28T20:32:34.421Z,5.86
2022-12-28T20:35:05.570Z,5.81
2022-12-28T20:37:34.317Z,5.76
2022-12-28T20:40:04.757Z,5.74
2022-12-28T20:42:50.820Z,5.72
2022-12-28T20:45:19.847Z,5.69
2022-12-28T20:47:48.767Z,5.63
2022-12-28T20:50:17.802Z,5.62
2022-12-28T20:52:46.756Z,5.63
2022-12-28T20:55:17.069Z,5.62
2022-12-28T20:57:46.262Z,5.65
2022-12-28T21:00:19.271Z,5.67
2022-12-28T21:02:48.500Z,5.67
2022-12-28T21:05:17.536Z,5.70
2022-12-28T21:07:48.882Z,5.69
2022-12-28T21:10:19.509Z,5.64
2022-12-28T21:12:48.971Z,5.67
2022-12-28T21:15:18.505Z,5.68
2022-12-28T21:17:53.452Z,5.65
2022-12-28T21:20:22.328Z,5.65
2022-12-28T21:22:55.096Z,5.65
2022-12-28T21:25:25.352Z,5.59
2022-12-28T21:27:54.798Z,5.49
2022-12-28T21:30:23.531Z,5.45
2022-12-28T21:32:54.186Z,5.40
2022-12-28T21:35:22.895Z,5.35
2022-12-28T21:37:54.807Z,5.32
2022-12-28T21:40:25.097Z,5.34
2022-12-28T21:42:54.156Z,5.34
2022-12-28T21:45:22.998Z,5.33
2022-12-28T21:47:54.099Z,5.39
2022-12-28T21:50:22.929Z,5.47
2022-12-28T21:52:52.263Z,5.50
2022-12-28T21:55:38.230Z,5.50
2022-12-28T21:58:08.761Z,5.48
2022-12-28T22:00:55.198Z,5.52
2022-12-28T22:03:41.370Z,5.49
2022-12-28T22:06:10.468Z,5.43
2022-12-28T22:08:56.562Z,5.39
2022-12-28T22:11:39.337Z,5.39
2022-12-28T22:14:10.017Z,5.34
2022-12-28T22:16:38.855Z,5.36
2022-12-28T22:19:07.632Z,5.42
2022-12-28T22:21:36.523Z,5.39
2022-12-28T22:24:05.525Z,5.38
2022-12-28T22:26:34.261Z,5.34
2022-12-28T22:29:03.875Z,5.38
2022-12-28T22:31:34.101Z,5.47
2022-12-28T22:34:06.989Z,5.57
2022-12-28T22:36:36.918Z,5.70
2022-12-28T22:39:05.786Z,5.81
2022-12-28T22:41:34.599Z,5.90
2022-12-28T22:44:03.410Z,6.05
2022-12-28T22:46:36.257Z,6.08
2022-12-28T22:49:05.362Z,6.13
2022-12-28T22:51:34.422Z,6.23
2022-12-28T22:54:03.226Z,6.37
2022-12-28T22:56:31.903Z,6.40
2022-12-28T22:59:04.704Z,6.30
2022-12-28T23:01:36.364Z,6.27
2022-12-28T23:04:05.399Z,6.24
2022-12-28T23:06:34.156Z,6.12
2022-12-28T23:09:02.944Z,6.08
2022-12-28T23:11:40.804Z,6.04
2022-12-28T23:14:28.165Z,5.97
2022-12-28T23:16:58.702Z,5.96
2022-12-28T23:19:44.095Z,6.01
2022-12-28T23:22:31.116Z,6.02
2022-12-28T23:25:17.081Z,6.02
2022-12-28T23:27:46.440Z,6.08
2022-12-28T23:30:17.780Z,6.14
2022-12-28T23:32:48.277Z,6.16
2022-12-28T23:35:17.556Z,6.18
2022-12-28T23:37:46.442Z,6.25
2022-12-28T23:40:15.884Z,6.39
2022-12-28T23:42:44.905Z,6.39
2022-12-28T23:45:14.734Z,6.41
2022-12-28T23:47:44.024Z,6.47
2022-12-28T23:50:14.622Z,6.57
2022-12-28T23:52:43.654Z,6.54
2022-12-28T23:55:12.403Z,6.54
2022-12-28T23:57:42.511Z,6.66
